Flugplatz Zell-Haidberg

Für EDNZ sind keine METAR/TAF Berichte vorhanden.
Es werden die Flugwettermeldungen vom Flugplatz Hof-Plauen in 17 km Entfernung angezeigt.

Prognose für EDQM

vom 25.09. um 17:00 UTC

Zwischen 18:00 UTC und 03:00 UTC

Wind 5 kt aus 230°

Sichtweite 10 km oder mehr

aufgebrochene Bewölkung in 2000 ft


Zwischen 18:00 UTC und 03:00 UTC zeitweise

Sichtweite 4000 m

schwacher Regen

TAF EDQM 251700Z 2518/2603 23005KT 9999 BKN020 TEMPO 2518/2603 4000 -RA
Impressum